sensor_id;sensor_type;location;lat;lon;timestamp;P1;durP1;ratioP1;P2;durP2;ratioP2
48268;SDS011;34088;52.232;5.196;2022-11-20T00:00:51;28.70;;;16.75;;
48268;SDS011;34088;52.232;5.196;2022-11-20T00:03:17;28.63;;;16.77;;
48268;SDS011;34088;52.232;5.196;2022-11-20T00:08:08;25.05;;;14.75;;
48268;SDS011;34088;52.232;5.196;2022-11-20T00:10:38;27.70;;;15.18;;
48268;SDS011;34088;52.232;5.196;2022-11-20T00:13:04;24.60;;;14.60;;
48268;SDS011;34088;52.232;5.196;2022-11-20T00:15:31;26.25;;;14.52;;
48268;SDS011;34088;52.232;5.196;2022-11-20T00:33:03;29.73;;;15.35;;
48268;SDS011;34088;52.232;5.196;2022-11-20T00:35:28;27.98;;;15.07;;
48268;SDS011;34088;52.232;5.196;2022-11-20T00:37:55;24.30;;;13.90;;
48268;SDS011;34088;52.232;5.196;2022-11-20T00:42:46;28.63;;;14.90;;
48268;SDS011;34088;52.232;5.196;2022-11-20T00:45:12;25.42;;;14.63;;
48268;SDS011;34088;52.232;5.196;2022-11-20T00:50:03;24.73;;;14.07;;
48268;SDS011;34088;52.232;5.196;2022-11-20T00:52:29;24.20;;;14.25;;
48268;SDS011;34088;52.232;5.196;2022-11-20T00:57:20;24.88;;;13.73;;
48268;SDS011;34088;52.232;5.196;2022-11-20T00:59:46;26.92;;;14.30;;
48268;SDS011;34088;52.232;5.196;2022-11-20T01:04:37;22.73;;;13.23;;
48268;SDS011;34088;52.232;5.196;2022-11-20T01:07:03;24.95;;;14.50;;
48268;SDS011;34088;52.232;5.196;2022-11-20T01:11:55;24.10;;;14.00;;
48268;SDS011;34088;52.232;5.196;2022-11-20T01:14:21;27.85;;;14.85;;
48268;SDS011;34088;52.232;5.196;2022-11-20T01:19:15;25.48;;;14.40;;
48268;SDS011;34088;52.232;5.196;2022-11-20T01:21:44;23.02;;;14.05;;
48268;SDS011;34088;52.232;5.196;2022-11-20T01:24:14;23.40;;;13.77;;
48268;SDS011;34088;52.232;5.196;2022-11-20T01:26:43;25.80;;;14.13;;
48268;SDS011;34088;52.232;5.196;2022-11-20T01:29:12;27.38;;;14.38;;
48268;SDS011;34088;52.232;5.196;2022-11-20T01:31:48;25.77;;;13.98;;
48268;SDS011;34088;52.232;5.196;2022-11-20T01:34:16;27.08;;;14.85;;
48268;SDS011;34088;52.232;5.196;2022-11-20T01:36:44;28.35;;;14.90;;
48268;SDS011;34088;52.232;5.196;2022-11-20T01:41:38;25.73;;;14.00;;
48268;SDS011;34088;52.232;5.196;2022-11-20T01:44:41;26.48;;;14.90;;
48268;SDS011;34088;52.232;5.196;2022-11-20T01:47:33;26.23;;;14.27;;
48268;SDS011;34088;52.232;5.196;2022-11-20T01:50:19;25.63;;;14.50;;
48268;SDS011;34088;52.232;5.196;2022-11-20T01:52:51;22.52;;;13.55;;
48268;SDS011;34088;52.232;5.196;2022-11-20T01:55:28;24.67;;;14.57;;
48268;SDS011;34088;52.232;5.196;2022-11-20T01:57:57;24.45;;;15.05;;
48268;SDS011;34088;52.232;5.196;2022-11-20T02:00:23;25.85;;;14.90;;
48268;SDS011;34088;52.232;5.196;2022-11-20T02:08:10;26.00;;;14.05;;
48268;SDS011;34088;52.232;5.196;2022-11-20T02:10:37;25.17;;;14.65;;
48268;SDS011;34088;52.232;5.196;2022-11-20T02:13:03;25.80;;;14.55;;
48268;SDS011;34088;52.232;5.196;2022-11-20T02:15:47;28.33;;;16.15;;
48268;SDS011;34088;52.232;5.196;2022-11-20T02:18:14;29.60;;;16.95;;
48268;SDS011;34088;52.232;5.196;2022-11-20T02:20:43;29.58;;;15.93;;
48268;SDS011;34088;52.232;5.196;2022-11-20T02:23:32;27.75;;;15.65;;
48268;SDS011;34088;52.232;5.196;2022-11-20T02:26:17;26.30;;;14.93;;
48268;SDS011;34088;52.232;5.196;2022-11-20T02:28:43;26.83;;;15.05;;
48268;SDS011;34088;52.232;5.196;2022-11-20T02:33:35;23.20;;;13.98;;
48268;SDS011;34088;52.232;5.196;2022-11-20T02:36:00;25.05;;;14.23;;
48268;SDS011;34088;52.232;5.196;2022-11-20T02:40:52;25.63;;;14.82;;
48268;SDS011;34088;52.232;5.196;2022-11-20T02:45:43;23.10;;;13.50;;
48268;SDS011;34088;52.232;5.196;2022-11-20T02:48:09;25.23;;;14.45;;
48268;SDS011;34088;52.232;5.196;2022-11-20T02:50:38;26.05;;;15.00;;
48268;SDS011;34088;52.232;5.196;2022-11-20T02:53:04;26.20;;;14.90;;
48268;SDS011;34088;52.232;5.196;2022-11-20T02:55:31;26.35;;;15.23;;
48268;SDS011;34088;52.232;5.196;2022-11-20T03:00:22;26.63;;;14.77;;
48268;SDS011;34088;52.232;5.196;2022-11-20T03:02:48;28.90;;;15.27;;
48268;SDS011;34088;52.232;5.196;2022-11-20T03:07:39;25.77;;;14.82;;
48268;SDS011;34088;52.232;5.196;2022-11-20T03:12:31;25.27;;;13.95;;
48268;SDS011;34088;52.232;5.196;2022-11-20T03:14:57;26.33;;;13.93;;
48268;SDS011;34088;52.232;5.196;2022-11-20T03:19:48;24.15;;;14.20;;
48268;SDS011;34088;52.232;5.196;2022-11-20T03:22:14;25.98;;;14.27;;
48268;SDS011;34088;52.232;5.196;2022-11-20T03:27:05;27.02;;;14.48;;
48268;SDS011;34088;52.232;5.196;2022-11-20T03:29:31;27.40;;;15.25;;
48268;SDS011;34088;52.232;5.196;2022-11-20T03:31:57;28.55;;;15.88;;
48268;SDS011;34088;52.232;5.196;2022-11-20T03:36:48;28.20;;;15.20;;
48268;SDS011;34088;52.232;5.196;2022-11-20T03:39:14;25.52;;;14.43;;
48268;SDS011;34088;52.232;5.196;2022-11-20T03:44:07;24.85;;;14.93;;
48268;SDS011;34088;52.232;5.196;2022-11-20T03:46:34;26.70;;;14.38;;
48268;SDS011;34088;52.232;5.196;2022-11-20T03:49:01;27.02;;;14.57;;
48268;SDS011;34088;52.232;5.196;2022-11-20T03:51:28;25.50;;;14.80;;
48268;SDS011;34088;52.232;5.196;2022-11-20T03:53:59;24.42;;;14.43;;
48268;SDS011;34088;52.232;5.196;2022-11-20T03:56:28;27.00;;;14.80;;
48268;SDS011;34088;52.232;5.196;2022-11-20T03:58:56;27.20;;;14.93;;
48268;SDS011;34088;52.232;5.196;2022-11-20T04:01:23;26.30;;;14.25;;
48268;SDS011;34088;52.232;5.196;2022-11-20T04:03:53;23.08;;;13.75;;
48268;SDS011;34088;52.232;5.196;2022-11-20T04:06:21;25.85;;;14.68;;
48268;SDS011;34088;52.232;5.196;2022-11-20T04:08:49;26.75;;;14.63;;
48268;SDS011;34088;52.232;5.196;2022-11-20T04:13:41;26.25;;;14.30;;
48268;SDS011;34088;52.232;5.196;2022-11-20T04:16:08;26.42;;;15.07;;
48268;SDS011;34088;52.232;5.196;2022-11-20T04:18:35;27.35;;;14.85;;
48268;SDS011;34088;52.232;5.196;2022-11-20T04:21:01;26.58;;;15.10;;
48268;SDS011;34088;52.232;5.196;2022-11-20T04:23:28;25.45;;;14.63;;
48268;SDS011;34088;52.232;5.196;2022-11-20T04:28:19;24.40;;;14.55;;
48268;SDS011;34088;52.232;5.196;2022-11-20T04:30:45;25.40;;;14.40;;
48268;SDS011;34088;52.232;5.196;2022-11-20T04:33:11;26.92;;;14.98;;
48268;SDS011;34088;52.232;5.196;2022-11-20T04:35:37;27.00;;;15.02;;
48268;SDS011;34088;52.232;5.196;2022-11-20T04:38:03;27.20;;;15.13;;
48268;SDS011;34088;52.232;5.196;2022-11-20T04:40:30;26.58;;;15.52;;
48268;SDS011;34088;52.232;5.196;2022-11-20T04:42:56;28.25;;;15.15;;
48268;SDS011;34088;52.232;5.196;2022-11-20T04:47:47;26.55;;;14.50;;
48268;SDS011;34088;52.232;5.196;2022-11-20T04:50:13;26.25;;;15.13;;
48268;SDS011;34088;52.232;5.196;2022-11-20T04:55:05;29.58;;;15.57;;
48268;SDS011;34088;52.232;5.196;2022-11-20T04:57:32;26.30;;;15.02;;
48268;SDS011;34088;52.232;5.196;2022-11-20T05:02:23;25.55;;;15.05;;
48268;SDS011;34088;52.232;5.196;2022-11-20T05:04:49;26.13;;;15.15;;
48268;SDS011;34088;52.232;5.196;2022-11-20T05:07:14;29.80;;;15.30;;
48268;SDS011;34088;52.232;5.196;2022-11-20T05:09:40;25.45;;;14.63;;
48268;SDS011;34088;52.232;5.196;2022-11-20T05:14:34;24.92;;;14.38;;
48268;SDS011;34088;52.232;5.196;2022-11-20T05:19:26;26.98;;;14.82;;
48268;SDS011;34088;52.232;5.196;2022-11-20T05:21:51;29.25;;;16.08;;
48268;SDS011;34088;52.232;5.196;2022-11-20T05:26:43;27.52;;;15.80;;
48268;SDS011;34088;52.232;5.196;2022-11-20T05:29:09;29.67;;;15.40;;
48268;SDS011;34088;52.232;5.196;2022-11-20T05:31:38;27.52;;;15.23;;
48268;SDS011;34088;52.232;5.196;2022-11-20T05:34:05;32.42;;;17.13;;
48268;SDS011;34088;52.232;5.196;2022-11-20T05:36:31;28.85;;;16.42;;
48268;SDS011;34088;52.232;5.196;2022-11-20T05:38:57;28.45;;;15.82;;
48268;SDS011;34088;52.232;5.196;2022-11-20T05:41:23;30.55;;;16.50;;
48268;SDS011;34088;52.232;5.196;2022-11-20T05:43:49;29.02;;;16.15;;
48268;SDS011;34088;52.232;5.196;2022-11-20T05:46:17;26.95;;;15.80;;
48268;SDS011;34088;52.232;5.196;2022-11-20T05:48:45;29.23;;;16.90;;
48268;SDS011;34088;52.232;5.196;2022-11-20T05:51:12;32.55;;;16.00;;
48268;SDS011;34088;52.232;5.196;2022-11-20T05:53:41;30.30;;;16.25;;
48268;SDS011;34088;52.232;5.196;2022-11-20T05:56:09;29.42;;;16.25;;
48268;SDS011;34088;52.232;5.196;2022-11-20T05:58:38;31.58;;;18.30;;
48268;SDS011;34088;52.232;5.196;2022-11-20T06:01:05;30.45;;;16.02;;
48268;SDS011;34088;52.232;5.196;2022-11-20T06:03:32;29.65;;;16.77;;
48268;SDS011;34088;52.232;5.196;2022-11-20T06:06:00;27.15;;;15.32;;
48268;SDS011;34088;52.232;5.196;2022-11-20T06:08:27;30.85;;;16.63;;
48268;SDS011;34088;52.232;5.196;2022-11-20T06:10:53;25.95;;;15.45;;
48268;SDS011;34088;52.232;5.196;2022-11-20T06:13:18;29.08;;;16.23;;
48268;SDS011;34088;52.232;5.196;2022-11-20T06:18:19;27.23;;;16.27;;
48268;SDS011;34088;52.232;5.196;2022-11-20T06:20:45;28.73;;;15.85;;
48268;SDS011;34088;52.232;5.196;2022-11-20T06:23:12;29.05;;;16.55;;
48268;SDS011;34088;52.232;5.196;2022-11-20T06:25:41;29.10;;;15.77;;
48268;SDS011;34088;52.232;5.196;2022-11-20T06:28:07;26.10;;;14.85;;
48268;SDS011;34088;52.232;5.196;2022-11-20T06:30:34;26.48;;;15.93;;
48268;SDS011;34088;52.232;5.196;2022-11-20T06:33:00;27.73;;;15.82;;
48268;SDS011;34088;52.232;5.196;2022-11-20T06:35:26;26.80;;;16.05;;
48268;SDS011;34088;52.232;5.196;2022-11-20T06:37:51;29.60;;;16.02;;
48268;SDS011;34088;52.232;5.196;2022-11-20T06:40:17;26.83;;;15.77;;
48268;SDS011;34088;52.232;5.196;2022-11-20T06:45:09;28.45;;;16.17;;
48268;SDS011;34088;52.232;5.196;2022-11-20T06:47:35;31.70;;;17.08;;
48268;SDS011;34088;52.232;5.196;2022-11-20T06:52:26;30.88;;;16.48;;
48268;SDS011;34088;52.232;5.196;2022-11-20T06:54:52;29.83;;;16.20;;
48268;SDS011;34088;52.232;5.196;2022-11-20T06:59:43;31.02;;;15.95;;
48268;SDS011;34088;52.232;5.196;2022-11-20T07:02:10;37.47;;;20.00;;
48268;SDS011;34088;52.232;5.196;2022-11-20T07:04:36;35.47;;;19.90;;
48268;SDS011;34088;52.232;5.196;2022-11-20T07:07:03;30.23;;;16.75;;
48268;SDS011;34088;52.232;5.196;2022-11-20T07:09:28;30.20;;;17.30;;
48268;SDS011;34088;52.232;5.196;2022-11-20T07:11:54;28.90;;;15.93;;
48268;SDS011;34088;52.232;5.196;2022-11-20T07:16:45;29.00;;;16.58;;
48268;SDS011;34088;52.232;5.196;2022-11-20T07:19:11;29.88;;;16.77;;
48268;SDS011;34088;52.232;5.196;2022-11-20T07:21:37;27.90;;;16.30;;
48268;SDS011;34088;52.232;5.196;2022-11-20T07:26:28;36.08;;;23.30;;
48268;SDS011;34088;52.232;5.196;2022-11-20T07:28:54;35.78;;;21.27;;
48268;SDS011;34088;52.232;5.196;2022-11-20T07:31:20;29.52;;;17.52;;
48268;SDS011;34088;52.232;5.196;2022-11-20T07:33:46;30.35;;;17.13;;
48268;SDS011;34088;52.232;5.196;2022-11-20T07:38:37;30.23;;;16.77;;
48268;SDS011;34088;52.232;5.196;2022-11-20T07:41:03;33.10;;;16.55;;
48268;SDS011;34088;52.232;5.196;2022-11-20T07:45:55;32.38;;;17.70;;
48268;SDS011;34088;52.232;5.196;2022-11-20T07:48:22;29.98;;;17.30;;
48268;SDS011;34088;52.232;5.196;2022-11-20T07:50:48;34.03;;;18.88;;
48268;SDS011;34088;52.232;5.196;2022-11-20T07:53:14;35.38;;;22.25;;
48268;SDS011;34088;52.232;5.196;2022-11-20T07:55:45;38.78;;;22.70;;
48268;SDS011;34088;52.232;5.196;2022-11-20T07:58:11;39.53;;;22.73;;
48268;SDS011;34088;52.232;5.196;2022-11-20T08:00:37;36.05;;;20.42;;
48268;SDS011;34088;52.232;5.196;2022-11-20T08:03:03;30.83;;;19.02;;
48268;SDS011;34088;52.232;5.196;2022-11-20T08:05:29;37.17;;;21.35;;
48268;SDS011;34088;52.232;5.196;2022-11-20T08:07:55;35.92;;;21.23;;
48268;SDS011;34088;52.232;5.196;2022-11-20T08:10:21;35.97;;;21.45;;
48268;SDS011;34088;52.232;5.196;2022-11-20T08:15:32;31.95;;;18.45;;
48268;SDS011;34088;52.232;5.196;2022-11-20T08:17:59;31.92;;;18.77;;
48268;SDS011;34088;52.232;5.196;2022-11-20T08:20:38;33.80;;;18.95;;
48268;SDS011;34088;52.232;5.196;2022-11-20T08:27:58;33.13;;;18.95;;
48268;SDS011;34088;52.232;5.196;2022-11-20T08:30:25;33.20;;;19.70;;
48268;SDS011;34088;52.232;5.196;2022-11-20T08:32:51;32.30;;;19.33;;
48268;SDS011;34088;52.232;5.196;2022-11-20T08:35:17;32.78;;;19.40;;
48268;SDS011;34088;52.232;5.196;2022-11-20T08:40:14;37.85;;;21.35;;
48268;SDS011;34088;52.232;5.196;2022-11-20T08:45:12;38.15;;;20.92;;
48268;SDS011;34088;52.232;5.196;2022-11-20T08:50:04;39.60;;;22.38;;
48268;SDS011;34088;52.232;5.196;2022-11-20T08:52:30;39.03;;;22.95;;
48268;SDS011;34088;52.232;5.196;2022-11-20T08:57:21;34.95;;;21.08;;
48268;SDS011;34088;52.232;5.196;2022-11-20T08:59:48;38.55;;;24.60;;
48268;SDS011;34088;52.232;5.196;2022-11-20T09:04:40;40.35;;;21.35;;
48268;SDS011;34088;52.232;5.196;2022-11-20T09:09:31;35.67;;;20.50;;
48268;SDS011;34088;52.232;5.196;2022-11-20T09:11:57;36.70;;;21.85;;
48268;SDS011;34088;52.232;5.196;2022-11-20T09:16:53;36.25;;;21.80;;
48268;SDS011;34088;52.232;5.196;2022-11-20T09:19:20;38.03;;;22.70;;
48268;SDS011;34088;52.232;5.196;2022-11-20T09:24:11;41.13;;;23.65;;
48268;SDS011;34088;52.232;5.196;2022-11-20T09:29:03;38.97;;;21.95;;
48268;SDS011;34088;52.232;5.196;2022-11-20T09:33:54;36.05;;;20.50;;
48268;SDS011;34088;52.232;5.196;2022-11-20T09:38:46;42.83;;;22.85;;
48268;SDS011;34088;52.232;5.196;2022-11-20T09:47:11;37.67;;;21.80;;
48268;SDS011;34088;52.232;5.196;2022-11-20T09:53:16;40.47;;;23.42;;
48268;SDS011;34088;52.232;5.196;2022-11-20T09:56:19;39.03;;;23.17;;
48268;SDS011;34088;52.232;5.196;2022-11-20T09:58:46;38.35;;;22.52;;
48268;SDS011;34088;52.232;5.196;2022-11-20T10:01:19;41.30;;;23.83;;
48268;SDS011;34088;52.232;5.196;2022-11-20T10:06:29;37.58;;;22.52;;
48268;SDS011;34088;52.232;5.196;2022-11-20T10:09:18;56.40;;;30.55;;
48268;SDS011;34088;52.232;5.196;2022-11-20T10:15:11;53.40;;;28.70;;
48268;SDS011;34088;52.232;5.196;2022-11-20T10:20:46;40.20;;;24.50;;
48268;SDS011;34088;52.232;5.196;2022-11-20T10:26:56;43.33;;;24.40;;
48268;SDS011;34088;52.232;5.196;2022-11-20T10:29:53;39.70;;;23.80;;
48268;SDS011;34088;52.232;5.196;2022-11-20T10:32:43;39.28;;;24.30;;
48268;SDS011;34088;52.232;5.196;2022-11-20T10:35:22;40.78;;;24.25;;
48268;SDS011;34088;52.232;5.196;2022-11-20T10:38:00;38.20;;;22.48;;
48268;SDS011;34088;52.232;5.196;2022-11-20T10:40:32;42.17;;;24.90;;
48268;SDS011;34088;52.232;5.196;2022-11-20T10:43:07;44.03;;;25.17;;
48268;SDS011;34088;52.232;5.196;2022-11-20T10:48:23;40.78;;;24.17;;
48268;SDS011;34088;52.232;5.196;2022-11-20T10:50:54;39.92;;;24.00;;
48268;SDS011;34088;52.232;5.196;2022-11-20T10:54:05;40.63;;;23.23;;
48268;SDS011;34088;52.232;5.196;2022-11-20T10:57:00;44.80;;;24.98;;
48268;SDS011;34088;52.232;5.196;2022-11-20T10:59:59;43.13;;;25.40;;
48268;SDS011;34088;52.232;5.196;2022-11-20T11:05:50;44.78;;;25.52;;
48268;SDS011;34088;52.232;5.196;2022-11-20T11:08:20;41.47;;;24.65;;
48268;SDS011;34088;52.232;5.196;2022-11-20T11:10:57;44.42;;;24.65;;
48268;SDS011;34088;52.232;5.196;2022-11-20T11:13:27;46.00;;;26.55;;
48268;SDS011;34088;52.232;5.196;2022-11-20T11:15:54;53.03;;;26.35;;
48268;SDS011;34088;52.232;5.196;2022-11-20T11:18:27;41.90;;;25.75;;
48268;SDS011;34088;52.232;5.196;2022-11-20T11:20:55;47.20;;;27.33;;
48268;SDS011;34088;52.232;5.196;2022-11-20T11:23:31;48.38;;;26.90;;
48268;SDS011;34088;52.232;5.196;2022-11-20T11:26:18;48.17;;;27.05;;
48268;SDS011;34088;52.232;5.196;2022-11-20T11:28:59;52.28;;;27.95;;
48268;SDS011;34088;52.232;5.196;2022-11-20T11:31:29;50.60;;;27.63;;
48268;SDS011;34088;52.232;5.196;2022-11-20T11:36:41;56.45;;;30.77;;
48268;SDS011;34088;52.232;5.196;2022-11-20T11:39:14;49.08;;;28.15;;
48268;SDS011;34088;52.232;5.196;2022-11-20T11:41:40;56.28;;;29.60;;
48268;SDS011;34088;52.232;5.196;2022-11-20T11:55:14;49.58;;;26.63;;
48268;SDS011;34088;52.232;5.196;2022-11-20T11:57:52;53.80;;;29.88;;
48268;SDS011;34088;52.232;5.196;2022-11-20T12:00:29;58.15;;;31.17;;
48268;SDS011;34088;52.232;5.196;2022-11-20T12:05:36;58.00;;;30.23;;
48268;SDS011;34088;52.232;5.196;2022-11-20T12:08:24;61.35;;;32.33;;
48268;SDS011;34088;52.232;5.196;2022-11-20T12:11:06;63.13;;;33.42;;
48268;SDS011;34088;52.232;5.196;2022-11-20T12:16:51;63.22;;;33.72;;
48268;SDS011;34088;52.232;5.196;2022-11-20T12:19:18;67.28;;;32.17;;
48268;SDS011;34088;52.232;5.196;2022-11-20T12:29:54;65.82;;;34.13;;
48268;SDS011;34088;52.232;5.196;2022-11-20T12:33:25;66.10;;;33.78;;
48268;SDS011;34088;52.232;5.196;2022-11-20T12:36:09;68.03;;;34.50;;
48268;SDS011;34088;52.232;5.196;2022-11-20T12:42:10;65.53;;;34.75;;
48268;SDS011;34088;52.232;5.196;2022-11-20T12:45:54;68.82;;;35.42;;
48268;SDS011;34088;52.232;5.196;2022-11-20T12:51:30;63.05;;;34.25;;
48268;SDS011;34088;52.232;5.196;2022-11-20T13:08:24;66.20;;;34.17;;
48268;SDS011;34088;52.232;5.196;2022-11-20T13:11:02;76.43;;;35.22;;
48268;SDS011;34088;52.232;5.196;2022-11-20T13:19:16;64.13;;;33.97;;
48268;SDS011;34088;52.232;5.196;2022-11-20T13:21:43;65.70;;;33.80;;
48268;SDS011;34088;52.232;5.196;2022-11-20T13:27:01;63.40;;;33.33;;
48268;SDS011;34088;52.232;5.196;2022-11-20T13:30:03;64.25;;;34.95;;
48268;SDS011;34088;52.232;5.196;2022-11-20T13:36:00;62.53;;;33.58;;
48268;SDS011;34088;52.232;5.196;2022-11-20T13:38:48;66.45;;;34.22;;
48268;SDS011;34088;52.232;5.196;2022-11-20T13:41:29;71.30;;;36.75;;
48268;SDS011;34088;52.232;5.196;2022-11-20T13:44:15;78.53;;;39.33;;
48268;SDS011;34088;52.232;5.196;2022-11-20T13:46:59;68.53;;;36.67;;
48268;SDS011;34088;52.232;5.196;2022-11-20T13:55:59;65.25;;;35.17;;
48268;SDS011;34088;52.232;5.196;2022-11-20T14:01:40;64.40;;;32.85;;
48268;SDS011;34088;52.232;5.196;2022-11-20T14:04:09;62.17;;;34.10;;
48268;SDS011;34088;52.232;5.196;2022-11-20T14:06:44;71.80;;;36.28;;
48268;SDS011;34088;52.232;5.196;2022-11-20T14:09:12;70.95;;;37.45;;
48268;SDS011;34088;52.232;5.196;2022-11-20T14:11:56;72.45;;;37.63;;
48268;SDS011;34088;52.232;5.196;2022-11-20T14:14:23;63.50;;;32.72;;
48268;SDS011;34088;52.232;5.196;2022-11-20T14:16:51;68.60;;;35.72;;
48268;SDS011;34088;52.232;5.196;2022-11-20T14:19:29;68.97;;;35.97;;
48268;SDS011;34088;52.232;5.196;2022-11-20T14:24:48;68.78;;;36.70;;
48268;SDS011;34088;52.232;5.196;2022-11-20T14:27:52;62.17;;;33.50;;
48268;SDS011;34088;52.232;5.196;2022-11-20T14:30:21;64.55;;;34.35;;
48268;SDS011;34088;52.232;5.196;2022-11-20T14:32:49;74.03;;;37.25;;
48268;SDS011;34088;52.232;5.196;2022-11-20T14:35:24;69.80;;;36.90;;
48268;SDS011;34088;52.232;5.196;2022-11-20T14:37:53;67.78;;;35.88;;
48268;SDS011;34088;52.232;5.196;2022-11-20T14:42:57;71.63;;;37.42;;
48268;SDS011;34088;52.232;5.196;2022-11-20T14:45:24;73.60;;;38.67;;
48268;SDS011;34088;52.232;5.196;2022-11-20T14:47:55;63.25;;;33.85;;
48268;SDS011;34088;52.232;5.196;2022-11-20T14:50:23;73.28;;;37.67;;
48268;SDS011;34088;52.232;5.196;2022-11-20T14:52:58;72.78;;;36.97;;
48268;SDS011;34088;52.232;5.196;2022-11-20T14:55:26;74.18;;;37.15;;
48268;SDS011;34088;52.232;5.196;2022-11-20T14:57:57;79.35;;;40.25;;
48268;SDS011;34088;52.232;5.196;2022-11-20T15:00:32;74.93;;;36.88;;
48268;SDS011;34088;52.232;5.196;2022-11-20T15:02:59;81.60;;;38.97;;
48268;SDS011;34088;52.232;5.196;2022-11-20T15:08:10;71.15;;;35.13;;
48268;SDS011;34088;52.232;5.196;2022-11-20T15:10:47;72.60;;;36.15;;
48268;SDS011;34088;52.232;5.196;2022-11-20T15:13:16;76.72;;;37.47;;
48268;SDS011;34088;52.232;5.196;2022-11-20T15:15:52;78.28;;;37.20;;
48268;SDS011;34088;52.232;5.196;2022-11-20T15:18:36;74.47;;;37.17;;
48268;SDS011;34088;52.232;5.196;2022-11-20T15:21:06;74.88;;;37.42;;
48268;SDS011;34088;52.232;5.196;2022-11-20T15:23:37;79.53;;;39.13;;
48268;SDS011;34088;52.232;5.196;2022-11-20T15:31:04;96.10;;;45.97;;
48268;SDS011;34088;52.232;5.196;2022-11-20T15:35:56;80.07;;;39.13;;
48268;SDS011;34088;52.232;5.196;2022-11-20T15:40:48;80.53;;;38.88;;
48268;SDS011;34088;52.232;5.196;2022-11-20T15:45:43;71.63;;;36.45;;
48268;SDS011;34088;52.232;5.196;2022-11-20T15:48:22;77.70;;;37.83;;
48268;SDS011;34088;52.232;5.196;2022-11-20T15:53:39;74.70;;;37.80;;
48268;SDS011;34088;52.232;5.196;2022-11-20T15:56:07;82.15;;;38.65;;
48268;SDS011;34088;52.232;5.196;2022-11-20T15:58:37;74.05;;;36.50;;
48268;SDS011;34088;52.232;5.196;2022-11-20T16:01:04;85.53;;;42.80;;
48268;SDS011;34088;52.232;5.196;2022-11-20T16:05:55;81.50;;;39.60;;
48268;SDS011;34088;52.232;5.196;2022-11-20T16:10:46;82.38;;;40.83;;
48268;SDS011;34088;52.232;5.196;2022-11-20T16:13:17;72.93;;;39.10;;
48268;SDS011;34088;52.232;5.196;2022-11-20T16:16:03;74.78;;;38.85;;
48268;SDS011;34088;52.232;5.196;2022-11-20T16:18:33;80.20;;;40.47;;
48268;SDS011;34088;52.232;5.196;2022-11-20T16:23:25;68.90;;;35.80;;
48268;SDS011;34088;52.232;5.196;2022-11-20T16:25:51;77.38;;;38.85;;
48268;SDS011;34088;52.232;5.196;2022-11-20T16:28:17;69.10;;;36.85;;
48268;SDS011;34088;52.232;5.196;2022-11-20T16:33:09;84.30;;;44.93;;
48268;SDS011;34088;52.232;5.196;2022-11-20T16:35:37;80.55;;;36.60;;
48268;SDS011;34088;52.232;5.196;2022-11-20T16:38:03;80.43;;;42.20;;
48268;SDS011;34088;52.232;5.196;2022-11-20T16:42:54;69.03;;;36.65;;
48268;SDS011;34088;52.232;5.196;2022-11-20T16:45:21;78.32;;;42.55;;
48268;SDS011;34088;52.232;5.196;2022-11-20T16:50:13;81.45;;;42.33;;
48268;SDS011;34088;52.232;5.196;2022-11-20T16:52:39;83.25;;;42.50;;
48268;SDS011;34088;52.232;5.196;2022-11-20T16:57:31;54.47;;;29.70;;
48268;SDS011;34088;52.232;5.196;2022-11-20T16:59:57;66.68;;;34.85;;
48268;SDS011;34088;52.232;5.196;2022-11-20T17:02:24;72.00;;;37.72;;
48268;SDS011;34088;52.232;5.196;2022-11-20T17:04:51;80.53;;;42.50;;
48268;SDS011;34088;52.232;5.196;2022-11-20T17:07:17;82.78;;;41.28;;
48268;SDS011;34088;52.232;5.196;2022-11-20T17:12:08;98.82;;;46.75;;
48268;SDS011;34088;52.232;5.196;2022-11-20T17:17:00;76.57;;;40.10;;
48268;SDS011;34088;52.232;5.196;2022-11-20T17:19:26;72.05;;;37.15;;
48268;SDS011;34088;52.232;5.196;2022-11-20T17:21:51;72.53;;;37.45;;
48268;SDS011;34088;52.232;5.196;2022-11-20T17:26:43;63.72;;;34.00;;
48268;SDS011;34088;52.232;5.196;2022-11-20T17:29:10;61.75;;;33.38;;
48268;SDS011;34088;52.232;5.196;2022-11-20T17:31:41;71.45;;;36.72;;
48268;SDS011;34088;52.232;5.196;2022-11-20T17:34:11;68.20;;;36.83;;
48268;SDS011;34088;52.232;5.196;2022-11-20T17:36:38;69.93;;;36.65;;
48268;SDS011;34088;52.232;5.196;2022-11-20T17:39:05;70.22;;;38.25;;
48268;SDS011;34088;52.232;5.196;2022-11-20T17:43:58;72.20;;;37.13;;
48268;SDS011;34088;52.232;5.196;2022-11-20T17:46:27;58.42;;;31.60;;
48268;SDS011;34088;52.232;5.196;2022-11-20T17:48:56;78.60;;;39.03;;
